createdAt,value
2022-11-03T00:01:46.692Z,98627.94
2022-11-03T00:04:15.220Z,98624.75
2022-11-03T00:06:42.374Z,98629.03
2022-11-03T00:09:10.430Z,98629.03
2022-11-03T00:11:37.857Z,98618.34
2022-11-03T00:14:04.700Z,98618.59
2022-11-03T00:16:31.165Z,98613.25
2022-11-03T00:18:57.643Z,98614.88
2022-11-03T00:21:24.092Z,98609.50
2022-11-03T00:23:51.085Z,98609.50
2022-11-03T00:26:20.742Z,98613.25
2022-11-03T00:28:48.905Z,98611.63
2022-11-03T00:31:17.139Z,98614.84
2022-11-03T00:33:43.904Z,98610.31
2022-11-03T00:36:12.268Z,98597.72
2022-11-03T00:38:38.750Z,98594.50
2022-11-03T00:41:05.805Z,98592.66
2022-11-03T00:43:33.397Z,98585.97
2022-11-03T00:45:59.999Z,98592.41
2022-11-03T00:48:29.366Z,98581.16
2022-11-03T00:51:02.485Z,98586.00
2022-11-03T00:53:29.181Z,98582.75
2022-11-03T00:55:55.643Z,98581.69
2022-11-03T00:58:22.185Z,98585.16
2022-11-03T01:00:48.704Z,98573.69
2022-11-03T01:03:15.182Z,98568.34
2022-11-03T01:06:00.895Z,98571.28
2022-11-03T01:08:33.220Z,98573.69
2022-11-03T01:11:25.518Z,98564.59
2022-11-03T01:13:52.032Z,98571.28
2022-11-03T01:16:18.497Z,98564.34
2022-11-03T01:18:44.981Z,98558.47
2022-11-03T01:21:11.460Z,98551.78
2022-11-03T01:23:37.989Z,98542.16
2022-11-03T01:26:05.948Z,98537.09
2022-11-03T01:28:36.148Z,98540.28
2022-11-03T01:31:06.500Z,98533.09
2022-11-03T01:33:33.355Z,98527.47
2022-11-03T01:35:59.845Z,98523.22
2022-11-03T01:38:26.341Z,98533.34
2022-11-03T01:40:52.863Z,98527.22
2022-11-03T01:43:22.922Z,98516.00
2022-11-03T01:46:18.711Z,98512.78
2022-11-03T01:49:09.825Z,98506.91
2022-11-03T01:51:36.530Z,98505.84
2022-11-03T01:54:05.757Z,98497.31
2022-11-03T01:56:32.803Z,98490.91
2022-11-03T01:58:59.270Z,98491.69
2022-11-03T02:01:25.840Z,98481.25
2022-11-03T02:03:59.597Z,98488.47
2022-11-03T02:06:26.525Z,98486.09
2022-11-03T02:08:56.886Z,98480.44
2022-11-03T02:11:41.909Z,98482.59
2022-11-03T02:14:12.867Z,98486.56
2022-11-03T02:16:39.329Z,98490.31
2022-11-03T02:19:05.796Z,98487.94
2022-11-03T02:22:10.625Z,98493.78
2022-11-03T02:24:49.900Z,98475.63
2022-11-03T02:27:20.259Z,98480.97
2022-11-03T02:29:46.915Z,98484.72
2022-11-03T02:32:20.030Z,98479.66
2022-11-03T02:34:54.739Z,98478.28
2022-11-03T02:37:23.017Z,98464.69
2022-11-03T02:40:05.331Z,98468.69
2022-11-03T02:42:31.810Z,98460.16
2022-11-03T02:44:59.950Z,98452.41
2022-11-03T02:47:26.425Z,98449.72
2022-11-03T02:49:53.711Z,98444.16
2022-11-03T02:52:43.799Z,98433.47
2022-11-03T02:55:48.526Z,98428.13
2022-11-03T02:58:38.851Z,98416.38
2022-11-03T03:01:49.350Z,98422.53
2022-11-03T03:04:23.753Z,98419.56
2022-11-03T03:07:23.683Z,98427.31
2022-11-03T03:09:54.419Z,98416.38
2022-11-03T03:12:20.879Z,98416.09
2022-11-03T03:14:47.412Z,98430.25
2022-11-03T03:17:35.645Z,98418.78
2022-11-03T03:20:05.516Z,98413.72
2022-11-03T03:23:06.244Z,98417.19
2022-11-03T03:25:43.654Z,98411.56
2022-11-03T03:28:11.988Z,98410.25
2022-11-03T03:30:38.466Z,98400.38
2022-11-03T03:33:05.748Z,98403.28
2022-11-03T03:35:32.862Z,98396.88
2022-11-03T03:38:02.241Z,98392.09
2022-11-03T03:40:36.446Z,98391.81
2022-11-03T03:43:03.602Z,98389.94
2022-11-03T03:45:30.399Z,98389.94
2022-11-03T03:47:57.872Z,98388.34
2022-11-03T03:50:25.399Z,98379.25
2022-11-03T03:52:55.610Z,98372.59
2022-11-03T03:55:22.095Z,98365.13
2022-11-03T03:57:48.632Z,98367.28
2022-11-03T04:00:16.032Z,98363.00
2022-11-03T04:02:42.639Z,98364.06
2022-11-03T04:05:09.116Z,98370.47
2022-11-03T04:07:47.327Z,98361.66
2022-11-03T04:10:18.046Z,98355.25
2022-11-03T04:13:03.197Z,98363.53
2022-11-03T04:16:02.662Z,98359.53
2022-11-03T04:18:47.553Z,98362.75
2022-11-03T04:21:32.486Z,98353.41
2022-11-03T04:24:00.354Z,98347.78
2022-11-03T04:26:26.975Z,98348.34
2022-11-03T04:28:53.576Z,98343.81
2022-11-03T04:31:20.232Z,98343.25
2022-11-03T04:33:47.871Z,98339.78
2022-11-03T04:36:19.423Z,98335.00
2022-11-03T04:38:46.007Z,98342.44
2022-11-03T04:41:17.467Z,98331.78
2022-11-03T04:43:44.613Z,98329.63
2022-11-03T04:46:16.559Z,98330.69
2022-11-03T04:48:43.465Z,98322.69
2022-11-03T04:51:20.702Z,98315.22
2022-11-03T04:53:53.085Z,98314.16
2022-11-03T04:56:22.185Z,98306.41
2022-11-03T04:58:48.692Z,98310.41
2022-11-03T05:01:23.427Z,98298.69
2022-11-03T05:03:52.162Z,98294.94
2022-11-03T05:06:21.266Z,98297.09
2022-11-03T05:08:51.140Z,98296.00
2022-11-03T05:11:21.876Z,98304.53
2022-11-03T05:13:48.490Z,98294.41
2022-11-03T05:16:14.959Z,98286.16
2022-11-03T05:18:43.525Z,98297.34
2022-11-03T05:21:11.390Z,98290.16
2022-11-03T05:23:42.744Z,98287.22
2022-11-03T05:26:20.601Z,98288.28
2022-11-03T05:28:59.907Z,98293.06
2022-11-03T05:31:27.976Z,98282.69
2022-11-03T05:33:57.657Z,98277.88
2022-11-03T05:36:25.350Z,98277.34
2022-11-03T05:38:51.985Z,98273.09
2022-11-03T05:41:21.941Z,98270.66
2022-11-03T05:43:58.184Z,98269.88
2022-11-03T05:46:27.263Z,98277.88
2022-11-03T05:48:53.712Z,98262.94
2022-11-03T05:51:25.060Z,98262.44
2022-11-03T05:53:56.034Z,98262.13
2022-11-03T05:56:23.846Z,98256.53
2022-11-03T05:58:51.428Z,98250.97
2022-11-03T06:01:34.046Z,98261.63
2022-11-03T06:04:01.626Z,98262.94
2022-11-03T06:06:35.320Z,98255.22
2022-11-03T06:09:19.697Z,98256.53
2022-11-03T06:11:46.344Z,98257.34
2022-11-03T06:14:36.197Z,98259.22
2022-11-03T06:17:06.399Z,98255.22
2022-11-03T06:19:44.930Z,98255.22
2022-11-03T06:22:18.985Z,98253.88
2022-11-03T06:24:45.839Z,98249.91
2022-11-03T06:27:16.694Z,98252.28
2022-11-03T06:29:43.689Z,98251.72
2022-11-03T06:32:10.244Z,98248.81
2022-11-03T06:34:46.283Z,98253.59
2022-11-03T06:37:24.965Z,98248.53
2022-11-03T06:39:51.819Z,98250.69
2022-11-03T06:42:20.559Z,98252.81
2022-11-03T06:44:48.673Z,98254.16
2022-11-03T06:47:23.244Z,98248.03
2022-11-03T06:49:59.629Z,98248.03
2022-11-03T06:52:33.998Z,98248.81
2022-11-03T06:55:16.679Z,98251.22
2022-11-03T06:57:45.859Z,98248.03
2022-11-03T07:00:41.154Z,98238.69
2022-11-03T07:03:24.957Z,98231.47
2022-11-03T07:05:51.416Z,98235.75
2022-11-03T07:08:29.156Z,98230.41
2022-11-03T07:11:01.233Z,98238.16
2022-11-03T07:13:27.741Z,98226.16
2022-11-03T07:15:54.201Z,98224.56
2022-11-03T07:18:20.756Z,98218.66
2022-11-03T07:20:49.691Z,98222.41
2022-11-03T07:23:19.582Z,98221.09
2022-11-03T07:25:49.452Z,98218.94
2022-11-03T07:28:15.960Z,98214.41
2022-11-03T07:30:42.495Z,98209.63
2022-11-03T07:33:15.195Z,98211.75
2022-11-03T07:36:08.940Z,98201.09
2022-11-03T07:38:29.514Z,98206.41
2022-11-03T07:40:57.298Z,98195.50
2022-11-03T07:43:31.767Z,98200.06
2022-11-03T07:45:59.765Z,98197.91
2022-11-03T07:48:42.107Z,98189.13
2022-11-03T07:51:22.209Z,98184.06
2022-11-03T07:53:50.540Z,98178.72
2022-11-03T07:56:27.169Z,98188.03
2022-11-03T07:59:01.531Z,98180.06
2022-11-03T08:01:30.108Z,98178.72
2022-11-03T08:03:59.003Z,98176.59
2022-11-03T08:06:25.483Z,98173.91
2022-11-03T08:08:52.151Z,98170.97
2022-11-03T08:11:19.544Z,98165.41
2022-11-03T08:13:48.811Z,98162.47
2022-11-03T08:16:15.274Z,98155.00
2022-11-03T08:18:41.731Z,98148.09
2022-11-03T08:21:08.260Z,98141.66
2022-11-03T08:23:34.779Z,98139.22
2022-11-03T08:26:01.253Z,98137.91
2022-11-03T08:28:28.277Z,98138.44
2022-11-03T08:30:54.818Z,98135.78
2022-11-03T08:33:21.379Z,98126.72
2022-11-03T08:35:47.918Z,98114.75
2022-11-03T08:38:14.474Z,98118.19
2022-11-03T08:40:40.970Z,98113.41
2022-11-03T08:43:07.456Z,98116.06
2022-11-03T08:45:33.935Z,98116.34
2022-11-03T08:48:00.411Z,98111.00
2022-11-03T08:50:26.916Z,98101.69
2022-11-03T08:52:53.418Z,98097.69
2022-11-03T08:55:19.943Z,98098.75
2022-11-03T08:57:47.306Z,98092.63
2022-11-03T09:00:14.298Z,98092.63
2022-11-03T09:02:40.773Z,98091.19
2022-11-03T09:05:07.821Z,98084.94
2022-11-03T09:10:23.195Z,98082.53
2022-11-03T09:12:51.450Z,98077.25
2022-11-03T09:15:17.934Z,98053.81
2022-11-03T09:17:45.683Z,98025.31
2022-11-03T09:20:12.453Z,98027.31
2022-11-03T09:22:39.329Z,98046.19
2022-11-03T09:25:06.288Z,98037.16
2022-11-03T09:27:32.738Z,98026.03
2022-11-03T09:30:12.692Z,98031.88
2022-11-03T09:32:40.425Z,98043.59
2022-11-03T09:35:08.292Z,98027.13
2022-11-03T09:37:34.849Z,98019.94
2022-11-03T09:40:02.073Z,98018.34
2022-11-03T09:42:28.534Z,98037.22
2022-11-03T09:44:55.062Z,98034.81
2022-11-03T09:47:27.929Z,98022.31
2022-11-03T09:49:54.388Z,98017.50
2022-11-03T09:52:22.320Z,98021.25
2022-11-03T09:54:48.896Z,98017.50
2022-11-03T09:57:15.609Z,98014.31
2022-11-03T09:59:46.717Z,98015.13
2022-11-03T10:02:25.328Z,98017.50
2022-11-03T10:04:52.702Z,98021.50
2022-11-03T10:07:19.279Z,98025.50
2022-11-03T10:09:47.724Z,98020.72
2022-11-03T10:12:14.232Z,98019.66
2022-11-03T10:14:41.587Z,98023.38
2022-11-03T10:17:09.487Z,98010.34
2022-11-03T10:19:38.704Z,98017.00
2022-11-03T10:22:05.159Z,98009.81
2022-11-03T10:24:31.614Z,97988.25
2022-11-03T10:26:58.314Z,97979.47
2022-11-03T10:29:26.007Z,97984.53
2022-11-03T10:31:57.037Z,97974.16
2022-11-03T10:34:24.417Z,97981.31
2022-11-03T10:36:51.128Z,97973.34
2022-11-03T10:39:25.954Z,97975.75
2022-11-03T10:41:57.672Z,97970.94
2022-11-03T10:44:26.277Z,97964.03
2022-11-03T10:47:00.458Z,97958.19
2022-11-03T10:49:31.046Z,97957.91
2022-11-03T10:52:15.877Z,97956.84
2022-11-03T10:54:42.613Z,97957.91
2022-11-03T10:57:09.077Z,97948.06
2022-11-03T10:59:37.385Z,97936.91
2022-11-03T11:02:04.281Z,97927.84
2022-11-03T11:04:32.007Z,97924.38
2022-11-03T11:06:58.852Z,97914.28
2022-11-03T11:09:26.208Z,97906.56
2022-11-03T11:12:25.233Z,97909.75
2022-11-03T11:15:02.659Z,97912.69
2022-11-03T11:17:47.735Z,97901.75
2022-11-03T11:20:23.738Z,97895.34
2022-11-03T11:22:50.484Z,97899.38
2022-11-03T11:25:20.166Z,97887.63
2022-11-03T11:27:47.510Z,97882.31
2022-11-03T11:30:19.980Z,97867.41
2022-11-03T11:32:46.353Z,97865.56
2022-11-03T11:35:15.770Z,97869.56
2022-11-03T11:37:42.385Z,97859.69
2022-11-03T11:40:24.668Z,97865.53
2022-11-03T11:43:19.755Z,97853.28
2022-11-03T11:46:23.578Z,97839.19
2022-11-03T11:49:10.189Z,97830.13
2022-11-03T11:51:37.742Z,97823.47
2022-11-03T11:54:17.579Z,97824.53
2022-11-03T11:56:45.512Z,97822.69
2022-11-03T11:59:24.810Z,97809.63
2022-11-03T12:01:54.032Z,97813.06
2022-11-03T12:04:29.024Z,97806.72
2022-11-03T12:06:56.436Z,97804.53
2022-11-03T12:09:27.683Z,97793.88
2022-11-03T12:11:56.396Z,97786.19
2022-11-03T12:14:29.305Z,97780.84
2022-11-03T12:16:56.420Z,97780.03
2022-11-03T12:19:42.566Z,97774.44
2022-11-03T12:22:10.407Z,97764.31
2022-11-03T12:24:39.115Z,97751.28
2022-11-03T12:27:20.441Z,97748.63
2022-11-03T12:29:46.921Z,97747.28
2022-11-03T12:32:25.984Z,97746.75
2022-11-03T12:34:59.905Z,97748.88
2022-11-03T12:37:26.385Z,97734.81
2022-11-03T12:39:52.842Z,97725.19
2022-11-03T12:42:20.077Z,97715.91
2022-11-03T12:44:46.721Z,97717.78
2022-11-03T12:47:13.319Z,97713.53
2022-11-03T12:49:39.804Z,97721.53
2022-11-03T12:52:08.442Z,97715.38
2022-11-03T12:54:35.267Z,97701.28
2022-11-03T12:57:01.794Z,97705.28
2022-11-03T12:59:28.396Z,97713.56
2022-11-03T13:01:55.354Z,97708.25
2022-11-03T13:04:21.899Z,97706.91
2022-11-03T13:06:48.481Z,97694.66
2022-11-03T13:09:14.977Z,97691.19
2022-11-03T13:12:00.083Z,97685.88
2022-11-03T13:14:26.714Z,97676.00
2022-11-03T13:16:53.253Z,97669.09
2022-11-03T13:19:19.831Z,97670.16
2022-11-03T13:21:46.313Z,97662.16
2022-11-03T13:24:12.769Z,97662.16
2022-11-03T13:26:39.258Z,97656.84
2022-11-03T13:29:05.716Z,97647.28
2022-11-03T13:31:32.441Z,97642.75
2022-11-03T13:33:58.906Z,97643.78
2022-11-03T13:36:25.515Z,97644.88
2022-11-03T13:38:52.442Z,97632.88
2022-11-03T13:41:18.926Z,97631.31
2022-11-03T13:43:45.413Z,97630.22
2022-11-03T13:46:12.934Z,97623.59
2022-11-03T13:51:26.229Z,97600.66
2022-11-03T13:59:26.234Z,97609.16
2022-11-03T14:07:11.402Z,97579.66
2022-11-03T14:09:37.902Z,97586.84
2022-11-03T14:12:23.354Z,97568.25
2022-11-03T14:14:50.182Z,97569.56
2022-11-03T14:17:16.781Z,97558.97
2022-11-03T14:19:48.680Z,97555.47
2022-11-03T14:22:19.527Z,97537.09
2022-11-03T14:24:46.006Z,97534.44
2022-11-03T14:27:15.637Z,97523.00
2022-11-03T14:29:43.710Z,97511.56
2022-11-03T14:32:13.056Z,97506.78
2022-11-03T14:34:41.116Z,97511.06
2022-11-03T14:37:11.058Z,97519.84
2022-11-03T14:39:37.662Z,97507.88
2022-11-03T14:42:05.326Z,97513.47
2022-11-03T14:44:42.284Z,97509.44
2022-11-03T14:47:12.030Z,97501.75
2022-11-03T14:49:40.597Z,97487.94
2022-11-03T14:52:07.516Z,97486.88
2022-11-03T14:54:34.465Z,97479.97
2022-11-03T14:57:00.968Z,97479.69
2022-11-03T14:59:27.552Z,97468.53
2022-11-03T15:01:54.235Z,97462.38
2022-11-03T15:04:21.426Z,97468.53
2022-11-03T15:06:48.272Z,97478.09
2022-11-03T15:09:15.070Z,97458.69
2022-11-03T15:11:42.525Z,97450.94
2022-11-03T15:14:09.013Z,97449.91
2022-11-03T15:16:36.223Z,97441.91
2022-11-03T15:19:03.705Z,97442.19
2022-11-03T15:21:30.613Z,97430.44
2022-11-03T15:26:43.561Z,97434.19
2022-11-03T15:29:10.024Z,97431.53
2022-11-03T15:31:36.499Z,97428.88
2022-11-03T15:34:06.044Z,97423.06
2022-11-03T15:36:35.302Z,97420.38
2022-11-03T15:39:01.922Z,97420.38
2022-11-03T15:41:28.397Z,97407.38
2022-11-03T15:43:54.852Z,97408.41
2022-11-03T15:46:21.339Z,97397.78
2022-11-03T15:48:49.153Z,97405.75
2022-11-03T15:51:15.725Z,97394.63
2022-11-03T15:53:43.636Z,97382.09
2022-11-03T15:56:10.141Z,97385.06
2022-11-03T15:58:38.126Z,97374.41
2022-11-03T16:01:05.149Z,97372.00
2022-11-03T16:03:34.780Z,97376.28
2022-11-03T16:06:01.258Z,97369.34
2022-11-03T16:08:28.889Z,97362.44
2022-11-03T16:10:58.542Z,97353.97
2022-11-03T16:13:25.423Z,97350.53
2022-11-03T16:15:54.416Z,97345.47
2022-11-03T16:18:28.270Z,97347.03
2022-11-03T16:20:56.087Z,97333.72
2022-11-03T16:23:22.546Z,97338.25
2022-11-03T16:25:49.001Z,97334.56
2022-11-03T16:28:16.137Z,97336.41
2022-11-03T16:30:42.974Z,97334.56
2022-11-03T16:33:10.113Z,97330.03
2022-11-03T16:35:37.639Z,97326.84
2022-11-03T16:38:04.148Z,97324.72
2022-11-03T16:40:30.700Z,97323.69
2022-11-03T16:42:57.170Z,97319.66
2022-11-03T16:45:27.566Z,97313.81
2022-11-03T16:47:54.865Z,97306.13
2022-11-03T16:50:24.181Z,97307.91
2022-11-03T16:52:51.854Z,97303.44
2022-11-03T16:55:19.086Z,97296.59
2022-11-03T16:57:47.049Z,97285.63
2022-11-03T17:00:17.669Z,97279.75
2022-11-03T17:02:44.367Z,97275.69
2022-11-03T17:05:11.060Z,97275.94
2022-11-03T17:07:38.898Z,97281.41
2022-11-03T17:10:06.812Z,97282.44
2022-11-03T17:12:33.987Z,97265.84
2022-11-03T17:15:00.465Z,97268.28
2022-11-03T17:17:28.622Z,97263.88
2022-11-03T17:19:56.468Z,97256.69
2022-11-03T17:22:24.308Z,97250.78
2022-11-03T17:24:51.037Z,97236.66
2022-11-03T17:27:50.879Z,97250.22
2022-11-03T17:30:25.005Z,97244.00
2022-11-03T17:32:53.178Z,97228.25
2022-11-03T17:35:22.284Z,97226.38
2022-11-03T17:37:50.088Z,97235.16
2022-11-03T17:40:22.833Z,97226.38
2022-11-03T17:42:52.903Z,97221.31
2022-11-03T17:45:21.016Z,97221.63
2022-11-03T17:47:49.574Z,97215.97
2022-11-03T17:50:19.887Z,97208.53
2022-11-03T17:52:46.925Z,97214.41
2022-11-03T17:55:28.299Z,97208.31
2022-11-03T17:57:55.207Z,97211.28
2022-11-03T18:00:29.653Z,97211.28
2022-11-03T18:02:57.945Z,97216.94
2022-11-03T18:05:30.411Z,97212.47
2022-11-03T18:08:01.151Z,97203.19
2022-11-03T18:10:31.022Z,97214.00
2022-11-03T18:13:17.425Z,97211.41
2022-11-03T18:15:45.319Z,97203.41
2022-11-03T18:18:14.469Z,97203.91
2022-11-03T18:20:50.335Z,97208.38
2022-11-03T18:23:25.368Z,97199.44
2022-11-03T18:25:54.601Z,97196.81
2022-11-03T18:28:21.382Z,97200.41
2022-11-03T18:30:48.807Z,97193.88
2022-11-03T18:33:33.617Z,97190.66
2022-11-03T18:36:02.033Z,97197.16
2022-11-03T18:38:28.522Z,97195.00
2022-11-03T18:40:56.075Z,97184.03
2022-11-03T18:43:23.856Z,97177.13
2022-11-03T18:45:50.691Z,97177.91
2022-11-03T18:48:21.511Z,97155.50
2022-11-03T18:50:55.285Z,97157.88
2022-11-03T18:53:24.489Z,97153.63
2022-11-03T18:55:51.869Z,97162.13
2022-11-03T18:58:20.375Z,97149.09
2022-11-03T19:00:46.965Z,97149.38
2022-11-03T19:03:15.791Z,97132.59
2022-11-03T19:05:43.495Z,97132.91
2022-11-03T19:08:17.972Z,97130.50
2022-11-03T19:10:46.229Z,97126.56
2022-11-03T19:13:36.931Z,97120.25
2022-11-03T19:16:08.780Z,97112.34
2022-11-03T19:18:37.170Z,97106.53
2022-11-03T19:21:13.431Z,97109.78
2022-11-03T19:23:40.207Z,97100.38
2022-11-03T19:26:21.470Z,97095.13
2022-11-03T19:28:50.474Z,97091.50
2022-11-03T19:31:39.967Z,97094.25
2022-11-03T19:34:08.634Z,97094.53
2022-11-03T19:36:36.158Z,97079.75
2022-11-03T19:39:02.942Z,97078.34
2022-11-03T19:41:49.326Z,97076.97
2022-11-03T19:44:16.143Z,97066.63
2022-11-03T19:46:42.630Z,97062.56
2022-11-03T19:49:13.298Z,97051.44
2022-11-03T19:51:40.392Z,97047.66
2022-11-03T19:54:10.475Z,97046.00
2022-11-03T19:56:39.043Z,97043.34
2022-11-03T19:59:09.385Z,97041.47
2022-11-03T20:01:38.928Z,97035.34
2022-11-03T20:04:08.338Z,97037.41
2022-11-03T20:06:41.000Z,97040.88
2022-11-03T20:09:09.385Z,97031.00
2022-11-03T20:11:38.106Z,97028.81
2022-11-03T20:14:04.593Z,97031.19
2022-11-03T20:16:31.228Z,97037.28
2022-11-03T20:18:58.098Z,97031.69
2022-11-03T20:21:34.277Z,97033.16
2022-11-03T20:24:04.721Z,97027.03
2022-11-03T20:26:31.751Z,97017.56
2022-11-03T20:28:59.571Z,97028.25
2022-11-03T20:31:26.053Z,97012.03
2022-11-03T20:33:53.695Z,97022.91
2022-11-03T20:36:20.541Z,97017.06
2022-11-03T20:39:01.472Z,97010.56
2022-11-03T20:41:28.706Z,97015.69
2022-11-03T20:43:56.757Z,97007.50
2022-11-03T20:46:28.141Z,97017.56
2022-11-03T20:48:57.866Z,97023.78
2022-11-03T20:51:26.271Z,97021.41
2022-11-03T20:53:52.999Z,97023.28
2022-11-03T20:56:22.211Z,97025.94
2022-11-03T20:58:48.755Z,97030.22
2022-11-03T21:01:18.237Z,97036.91
2022-11-03T21:03:58.810Z,97034.72
2022-11-03T21:06:26.713Z,97035.03
2022-11-03T21:08:55.153Z,97030.22
2022-11-03T21:11:24.924Z,97033.94
2022-11-03T21:13:54.130Z,97033.94
2022-11-03T21:16:39.180Z,97036.59
2022-11-03T21:19:43.322Z,97034.94
2022-11-03T21:22:46.210Z,97041.34
2022-11-03T21:25:04.788Z,97026.03
2022-11-03T21:27:31.531Z,97016.69
2022-11-03T21:30:00.587Z,97016.38
2022-11-03T21:32:28.562Z,97005.72
2022-11-03T21:34:56.299Z,97007.28
2022-11-03T21:37:22.776Z,97005.41
2022-11-03T21:39:50.055Z,97006.03
2022-11-03T21:42:35.075Z,97003.94
2022-11-03T21:45:02.963Z,96993.59
2022-11-03T21:47:34.212Z,96989.63
2022-11-03T21:52:32.325Z,96979.59
2022-11-03T21:55:02.488Z,96983.22
2022-11-03T21:57:29.627Z,96967.63
2022-11-03T21:59:59.395Z,96957.91
2022-11-03T22:02:30.052Z,96949.75
2022-11-03T22:04:56.995Z,96948.00
2022-11-03T22:07:23.556Z,96951.69
2022-11-03T22:09:50.022Z,96924.28
2022-11-03T22:12:16.861Z,96921.13
2022-11-03T22:15:01.771Z,96915.34
2022-11-03T22:17:28.587Z,96909.44
2022-11-03T22:20:14.375Z,96905.50
2022-11-03T22:23:01.563Z,96902.09
2022-11-03T22:25:48.553Z,96903.06
2022-11-03T22:28:16.432Z,96884.38
2022-11-03T22:31:01.624Z,96888.97
2022-11-03T22:33:28.296Z,96904.06
2022-11-03T22:36:18.739Z,96899.06
2022-11-03T22:39:06.353Z,96898.47
2022-11-03T22:41:51.415Z,96893.25
2022-11-03T22:44:36.578Z,96899.41
2022-11-03T22:47:06.930Z,96888.72
2022-11-03T22:49:34.963Z,96881.94
2022-11-03T22:52:02.301Z,96892.63
2022-11-03T22:54:33.433Z,96894.22
2022-11-03T22:56:59.907Z,96895.78
2022-11-03T22:59:27.765Z,96897.34
2022-11-03T23:01:58.346Z,96897.81
2022-11-03T23:04:24.927Z,96898.59
2022-11-03T23:06:51.386Z,96897.53
2022-11-03T23:09:18.397Z,96903.66
2022-11-03T23:11:45.199Z,96904.63
2022-11-03T23:14:12.141Z,96889.53
2022-11-03T23:16:40.596Z,96897.69
2022-11-03T23:19:31.072Z,96902.25
2022-11-03T23:22:01.674Z,96900.38
2022-11-03T23:24:46.945Z,96901.16
2022-11-03T23:27:13.913Z,96909.16
2022-11-03T23:29:40.887Z,96896.91
2022-11-03T23:32:07.752Z,96893.28
2022-11-03T23:34:37.672Z,96894.84
2022-11-03T23:37:05.409Z,96899.59
2022-11-03T23:39:33.040Z,96892.19
2022-11-03T23:41:59.524Z,96879.59
2022-11-03T23:44:46.270Z,96882.75
2022-11-03T23:47:41.986Z,96884.16
2022-11-03T23:50:11.804Z,96879.13
2022-11-03T23:52:38.268Z,96876.16
2022-11-03T23:55:05.125Z,96878.97
2022-11-03T23:57:50.881Z,96876.28
